Strona główna
METAR-TAF:

METAR-TAF

Lotnisko :

Port lotniczy Dar es Salaam

Dar es Salaam, Tanzania

Szerokość geograficzna: 06-52S, Długość geograficzna: 039-12E, wysokość: 55 m

Aktualna obserwacja pogody

Raport powstał 1 godzina i 6 minut temu, godzina 08:00 UTC
Wiatr 20 kt od północno-północny wschód
Temperatura 31°C
Wilgotność 66%
Ciśnienie 1013 hPa
Widzialność 10 km lub więcej

METAR: HTDA 230800Z 03020KT 9999 31/24 Q1013 NOSIG

czas: 12:06 (09:06 UTC)

Prognoza

Raport powstał 4 godziny i 6 minut temu, godzina 05:00 UTC
Prognoza ważna od 23 godzina 06 UTC do 24 godzina 12 UTC
Wiatr 15 kt od północny wschód
Widzialność 10 km lub więcej
Przerywane chmury na wysokości 1800 ft
Stopniowe zmiany
od 23 godzina 15 UTC do 23 godzina 18 UTC
Rozproszone chmury na wysokości 1300 ft

TAF: HTDA 230500Z 2306/2412 05015KT 9999 BKN018 BECMG 2315/2318 SCT013

Obserwacja i prognoza pogody dla ponad 4000 lotnisk (raport METAR i TAF).

Dostępne stacje oznaczono żółtymi i czerwonymi punktami na mapie.

Najedź kursorem aby zobaczyć nazwę stacji.

Kliknij aby zobaczyć obserwacje i prognozy pogody.

Aby zmienić mapę: kliknij na zielony przycisk z czarnym krzyżykiem, aby powiększyć; na zielony przycisk z myślnikiem, aby pomniejszyć; na zielone strzałki, aby przejść do map sąsiednich.


METAR-TAF: